createdAt,value
2023-04-11T00:05:34.588Z,12.45
2023-04-11T00:15:37.964Z,12.96
2023-04-11T00:25:40.132Z,12.97
2023-04-11T00:35:42.313Z,13.13
2023-04-11T00:45:44.579Z,13.07
2023-04-11T00:55:47.120Z,13.02
2023-04-11T01:05:52.747Z,13.02
2023-04-11T01:15:54.991Z,13.00
2023-04-11T01:25:57.135Z,13.12
2023-04-11T01:35:59.359Z,13.14
2023-04-11T01:46:01.802Z,12.97
2023-04-11T01:56:04.176Z,12.97
2023-04-11T02:06:06.538Z,13.03
2023-04-11T02:16:15.518Z,12.76
2023-04-11T02:26:17.862Z,12.07
2023-04-11T02:36:20.254Z,11.60
2023-04-11T02:46:22.699Z,11.43
2023-04-11T02:56:24.923Z,11.40
2023-04-11T03:06:27.385Z,10.42
2023-04-11T03:16:29.830Z,9.86
2023-04-11T03:26:32.685Z,9.70
2023-04-11T03:36:34.878Z,9.66
2023-04-11T03:46:37.063Z,9.65
2023-04-11T03:56:39.558Z,9.67
2023-04-11T04:06:42.122Z,9.73
2023-04-11T04:16:44.549Z,9.71
2023-04-11T04:26:50.304Z,9.68
2023-04-11T04:36:56.774Z,9.60
2023-04-11T04:46:59.043Z,9.49
2023-04-11T04:57:01.733Z,9.40
2023-04-11T05:07:03.754Z,9.37
2023-04-11T05:17:06.693Z,9.33
2023-04-11T05:27:08.820Z,9.36
2023-04-11T05:37:11.113Z,9.38
2023-04-11T05:47:13.325Z,9.48
2023-04-11T05:57:15.610Z,9.56
2023-04-11T06:07:18.134Z,9.52
2023-04-11T06:17:21.209Z,9.40
2023-04-11T06:27:23.827Z,9.35
2023-04-11T06:37:26.523Z,9.19
2023-04-11T06:47:28.878Z,9.16
2023-04-11T06:57:31.362Z,9.19
2023-04-11T07:07:33.755Z,9.09
2023-04-11T07:17:36.409Z,9.07
2023-04-11T07:27:39.269Z,9.15
2023-04-11T07:37:42.767Z,9.25
2023-04-11T07:47:45.434Z,9.36
2023-04-11T07:57:48.077Z,9.35
2023-04-11T08:07:50.500Z,9.35
2023-04-11T08:17:56.926Z,9.57
2023-04-11T08:28:01.648Z,9.92
2023-04-11T08:38:04.637Z,10.21
2023-04-11T08:48:08.071Z,10.34
2023-04-11T08:58:10.379Z,10.83
2023-04-11T09:08:16.853Z,11.58
2023-04-11T09:18:37.959Z,12.22
2023-04-11T09:28:44.962Z,12.55
2023-04-11T09:38:47.298Z,12.83
2023-04-11T09:48:50.597Z,13.12
2023-04-11T09:58:53.547Z,13.04
2023-04-11T10:09:05.263Z,13.58
2023-04-11T10:19:07.904Z,14.22
2023-04-11T10:29:30.479Z,14.12
2023-04-11T10:39:51.511Z,13.62
2023-04-11T10:49:54.828Z,14.11
2023-04-11T10:59:57.848Z,14.31
2023-04-11T11:10:00.285Z,14.55
2023-04-11T11:20:02.652Z,14.36
2023-04-11T11:30:11.591Z,14.60
2023-04-11T11:40:14.238Z,14.16
2023-04-11T11:50:27.047Z,14.38
2023-04-11T12:00:30.379Z,15.12
2023-04-11T12:10:40.052Z,15.92
2023-04-11T12:20:42.454Z,16.24
2023-04-11T12:30:44.774Z,16.45
2023-04-11T12:40:47.434Z,16.48
2023-04-11T12:50:49.905Z,16.44
2023-04-11T13:00:52.297Z,16.52
2023-04-11T13:10:55.915Z,16.15
2023-04-11T13:20:59.297Z,16.01
2023-04-11T13:31:01.919Z,16.43
2023-04-11T13:41:04.295Z,16.99
2023-04-11T13:51:06.745Z,17.43
2023-04-11T14:01:09.134Z,17.54
2023-04-11T14:11:11.421Z,17.27
2023-04-11T14:21:14.131Z,17.51
2023-04-11T14:31:16.617Z,16.91
2023-04-11T14:41:19.671Z,17.15
2023-04-11T14:51:23.812Z,17.23
2023-04-11T15:01:26.844Z,16.99
2023-04-11T15:11:29.268Z,17.01
2023-04-11T15:21:35.344Z,16.54
2023-04-11T15:31:39.097Z,16.60
2023-04-11T15:41:41.790Z,16.49
2023-04-11T15:51:45.327Z,16.20
2023-04-11T16:01:47.694Z,16.17
2023-04-11T16:11:50.018Z,15.87
2023-04-11T16:21:52.460Z,16.01
2023-04-11T16:31:55.636Z,15.74
2023-04-11T16:41:58.076Z,15.05
2023-04-11T16:52:00.554Z,14.56
2023-04-11T17:02:02.990Z,14.18
2023-04-11T17:12:05.462Z,13.77
2023-04-11T17:22:08.181Z,13.46
2023-04-11T17:32:12.505Z,13.09
2023-04-11T17:42:15.079Z,12.73
2023-04-11T17:52:17.630Z,12.31
2023-04-11T18:02:20.418Z,11.86
2023-04-11T18:12:29.528Z,11.48
2023-04-11T18:22:32.436Z,11.13
2023-04-11T18:32:42.365Z,10.83
2023-04-11T18:42:49.760Z,10.65
2023-04-11T18:52:56.093Z,10.43
2023-04-11T19:02:59.983Z,10.29
2023-04-11T19:13:02.732Z,10.22
2023-04-11T19:23:05.322Z,10.06
2023-04-11T19:33:07.818Z,9.97
2023-04-11T19:43:10.329Z,9.90
2023-04-11T19:53:12.783Z,9.80
2023-04-11T20:03:15.284Z,9.67
2023-04-11T20:13:17.930Z,9.57
2023-04-11T20:23:22.325Z,9.50
2023-04-11T20:33:24.962Z,9.45
2023-04-11T20:43:27.347Z,9.42
2023-04-11T20:53:29.627Z,9.44
2023-04-11T21:03:36.667Z,9.41
2023-04-11T21:13:39.191Z,9.35
2023-04-11T21:23:41.636Z,9.29
2023-04-11T21:33:46.426Z,9.14
2023-04-11T21:43:49.047Z,9.05
2023-04-11T21:53:51.369Z,8.99
2023-04-11T22:03:53.815Z,8.84
2023-04-11T22:13:59.001Z,8.68
2023-04-11T22:24:02.645Z,8.55
2023-04-11T22:34:05.221Z,8.45
2023-04-11T22:44:07.615Z,8.36
2023-04-11T22:54:10.073Z,8.34
2023-04-11T23:04:12.607Z,8.28
2023-04-11T23:14:15.827Z,8.28
2023-04-11T23:24:18.009Z,8.24
2023-04-11T23:34:21.219Z,8.29
2023-04-11T23:44:23.440Z,8.29
2023-04-11T23:54:30.444Z,8.35
